Timeline UpdatesTrip UpdatesNews PostsPvt PostsTravel TipsAdmin PostsConv PostsFollowed PostsChat RequestsBlog PostsPNR Posts

Disclaimer
Search
 
 
Fri Aug 1, 2014 19:23:42 ISTHomeTrainsΣChainsAtlasPNRForumGalleryNewsFAQTripsMembersLoginFeedback
No Recent News for this Train
Other Trains in the News **new
Latest...
.
Fri Jun 13, 2014 (02:32PM)
⇐ Return Journey: Train# 18047

18048/Amaravati Express

Jun 17 2014 (7:53PM)
Change Departure Station:
Change Arrival Station:
Post a Train Travel TipPost a Train Travel Tip **new
Post a Comment/Question/Picture/VideoPost a Comment/Question/Picture/Video
Pantry/Catering
✕ NO Pantry Car
✓ Catering Avbl
RSA - Rake Sharing
Rake/Coach Composition
ENG, VPH, SLR, GEN, GEN, A1, B1,B2 S9 to S1, GEN, SLR;;,; Extra 3A attached as B2. Ref:PNR Entry#631947
Loco
VSG to GNT: GY WDM/G3A Twins. GNT to HWH: LGD WAP4.
News    PNR    Forum    Time-Table    Availability    Fare Chart    Map    Arr/Dep History    Trips    Gallery    ΣChains    X/O    Timeline    
Travel Time: 15h 4m    19 halts    Distance: 713 km    Avg Speed: 47 km/hr
Type: Mail/Express
Zone: SER/South Eastern
Departs @ 07:10 (Avg on time)
Platform# 1
S T TF 
Vasco-da-Gama/VSG 
Arrives @ 22:14 (Avg 38m late)
Platform# ???
S T TF 
Markapur Road/MRK 

19 halts. 97 intermediate Stations between Vasco-da-Gama and Markapur Road

Show ALL intermediate Stations  Show Old Time-Table

#CodeStation NameX/OArrivesAvgDepartsAvgHaltPFDay#KmSpeedElevZoneAddress
1VSG»Vasco-da-Gama (3)»  -07:10+0110.0408mSWRVasco-Da-Gama 403801, Goa
2MAOMadgaon Junction (3)07:45+507:50+65m--123.411311mKRMadgaon 403601, Goa
3SVMKudchade (2)  07:58+1808:00+182m--138.45512mSWRCurchorem, Goa
4QLMKulem (2)  08:20+2208:30+2310m--156.83175mSWRSouth Goa Distt., Goa
5CLRCastle Rock (3)X  09:20+3109:25+315m1183.039585mSWRCastlerock, Karnataka
6LDLonda Junction (3)O  10:03+2610:05+282m11107.545643mSWRLonda, Karnataka
7DWRDharwad (4)11:39+1511:40+191m--1178.030737mSWRDharwad 580001, Karnataka
8UBLHubli Junction (5)  12:20+512:30+1310m--1198.060640mSWRHubli - 580020, Karnataka
9GDGGadag Junction (3)  13:28+1513:30+162m--1255.875655mSWRGadag GDG jn pnts. UBL/BAY/SUR, Karnataka
10KBLKoppal (1)14:16+1614:17+171m11313.246526mSWRKoppal, Karnataka
11HPTHospet Junction (3)  14:53+1314:55+132m41341.157472mSWRHospet, Karnataka
12TNGLToranagallu (3)15:29+1015:30+111m--1373.437473mSWRToranagallu, Karnataka
13BAYBellary Junction (3)  16:23-116:25+32m--1405.967458mSWRBellary, Karnataka
14GTLGuntakal Junction (6)17:10+1717:25+3015m--1455.851453mSCRGuntakal. Tel: 08552-227131/32, Andhra Pradesh
15MKRMaddikera (2)  17:39+3417:40+341m--1467.658481mSCRPin: 518385, Andhra Pradesh
16DHNEDhone Junction (3)  18:38+3018:40+342m--1524.267425mSCR518222, Andhra Pradesh
17BMHBetamcherla (2)19:12+3119:13+301m--1560.036425mSCRBetamcherla, Andhra Pradesh
18NDLNandyal (3)  20:20+2520:25+275m11600.364216mSCRPhone Number : 9247019958, Andhra Pradesh
19GIDGiddalur (2)X  21:15+3521:16+351m--1653.674269mSCRGiddalur ph.no 08405-242003, Andhra Pradesh
20CBMCumbum (1)  21:43+4121:45+412m11687.054199mSCRprakasham dist, Andhra Pradesh
21MRK•Markapur Road (2)•X  22:14+3822:15+411m--1712.949156mSCRmarkapur road ph.no 08596-222028, Andhra Pradesh
22DKDDonakonda (3)  22:45+3822:46+401m11737.255154mSCRPhone:08408-272037, Andhra Pradesh
23VKNVinukonda (1)X  23:27+3123:28+311m11774.55495mSCRVinukonda, Andhra Pradesh
24NRTNarasaraopet (3)  00:10+2400:11+241m--2812.03074mSCRNarsaraopet ph.no 08647-223131, Andhra Pradesh
25GNTGuntur Junction (7)  01:40-102:00+1020m12857.13837mSCRGuntur, Andhra Pradesh
26BZAVijayawada Junction (10)  02:50+1203:00+1410m52889.07724mSCRVijayawada 520001, Andhra Pradesh
27EEEluru (3)X  03:46+3103:47+321m22948.49219mSCREluru Ph.no. 08812 226401., Andhra Pradesh
28TDDTadepalligudem (3)04:18+3404:19+341m22996.14918mSCRTadepalligudem, Andhra Pradesh
29RJYRajahmundry (3)  05:11+2405:13+252m321038.37923mSCRRajahmundry ph.no. 0883-2420541, Andhra Pradesh
30SLOSamalkot Junction (3)  05:51+2605:52+261m121088.55918mSCRSamalkot, Andhra Pradesh
31DVDDuvvada (4)  08:07+1108:08+121m--21221.75346mECoRVishakhapatnam District, Andhra Pradesh
32SCMNSimhachalam North (5)XO08:20-08:25-5m--21232.35220mECoRVishakhapatnam, Andhra Pradesh
33VZMVizianagaram Junction (5)  09:25+1409:40+1315m--21283.98363mECoRVizianagaram, Andhra Pradesh
34CHESrikakulam Road (4)XO  10:30+1210:32+122m--21353.56634mECoRsrikakulam road ph .no. 08942-287222, Andhra Pradesh
35PSAPalasa (3)  11:38+811:40+102m--21426.48131mECoRKasibugga, Andhra Pradesh
36BAMBrahmapur (3)  12:35+1612:37+162m221500.87527mECoRBerhampur, Odisha
37KURKhurda Road Junction (7)X  14:35+1114:50+915m121647.94525mECoRKhordha, Odisha
38BBSBhubaneswar (4)  15:15+1215:20+125m221666.86740mECoRBhubaneshwar, Odisha
39CTCCuttack Junction (5)  15:45+3515:50+365m121694.78528mECoRCuttack, Odisha
40JJKRJajpur Keonjhar Road (4)  16:41+4016:42+411m121766.74136mECoRJajpur, Odisha
41BHCBhadrak (4)X  17:46+2117:48+222m321810.48723mECoRBhadrak, Odisha
42BLSBalasore (4)X  18:31+3518:33+352m321872.87319mSERBalasore, Odisha
43KGPKharagpur Junction (10)X  20:08+3020:23+2915m621988.97542mSERKharagpur, West Bengal
44SRCKolkata Santragachi Junction (6)  21:49+1721:50+161m522096.5137mSERDist: Howrah - 711104, West Bengal
45HWHKolkata Howrah Junction (23)  22:25+29-2022103.9-10mERHowrah 711101, West Bengal
Scroll to Top
Scroll to Bottom